HVN1821 VVTS-VVPQ
Flight info
| Callsign | HVN1821 |
|---|---|
| Flight time | 0h 30m |
| Altitude | 16000 |
| Route | BACHU5A BACHU W17 TUNPO TUNPO1D |
| Aircraft | A321/M-SDE3FGHIRWY/LB1 |
Departure
| Time | 2026-05-05 10:58 |
|---|---|
| Airport | Tan Son Nhat International Airport (VVTS) |
Arrival
| Time | 2026-05-05 11:29 |
|---|---|
| Airport | Phú Quốc International Airport (VVPQ) |
| Time | Latitude | Longitude | Altitude | Speed | Heading |
|---|---|---|---|---|---|
| 2026-05-05 10:10 | 10.81353 | 106.65563 | 37 ft | 0 kts | 158° |
| 2026-05-05 10:34 | 10.81354 | 106.65563 | 37 ft | 0 kts | 158° |
| 2026-05-05 10:49 | 10.81361 | 106.65559 | 13 ft | 3 kts | 160° |
| 2026-05-05 10:49 | 10.81380 | 106.65553 | 11 ft | 2 kts | 160° |
| 2026-05-05 10:49 | 10.81395 | 106.65545 | 36 ft | 3 kts | 123° |
| 2026-05-05 10:49 | 10.81402 | 106.65527 | 37 ft | 3 kts | 91° |
| 2026-05-05 10:50 | 10.81400 | 106.65508 | 35 ft | 2 kts | 72° |
| 2026-05-05 10:50 | 10.81399 | 106.65502 | 36 ft | 0 kts | 69° |
| 2026-05-05 10:53 | 10.81400 | 106.65506 | 35 ft | 1 kts | 69° |
| 2026-05-05 10:53 | 10.81410 | 106.65532 | 37 ft | 8 kts | 69° |
| 2026-05-05 10:53 | 10.81437 | 106.65605 | 37 ft | 14 kts | 69° |
| 2026-05-05 10:54 | 10.81476 | 106.65706 | 35 ft | 16 kts | 69° |
| 2026-05-05 10:54 | 10.81529 | 106.65789 | 37 ft | 14 kts | 19° |
| 2026-05-05 10:54 | 10.81630 | 106.65801 | 37 ft | 15 kts | 5° |
| 2026-05-05 10:54 | 10.81729 | 106.65794 | 33 ft | 12 kts | 5° |
| 2026-05-05 10:55 | 10.81785 | 106.65870 | 36 ft | 17 kts | 69° |
| 2026-05-05 10:55 | 10.81836 | 106.66006 | 35 ft | 24 kts | 69° |
| 2026-05-05 10:55 | 10.81904 | 106.66186 | 36 ft | 29 kts | 69° |
| 2026-05-05 10:55 | 10.81975 | 106.66373 | 36 ft | 28 kts | 69° |
| 2026-05-05 10:56 | 10.82045 | 106.66561 | 33 ft | 28 kts | 68° |
| 2026-05-05 10:56 | 10.82116 | 106.66747 | 32 ft | 28 kts | 68° |
| 2026-05-05 10:56 | 10.82181 | 106.66922 | 33 ft | 24 kts | 69° |
| 2026-05-05 10:56 | 10.82233 | 106.67012 | 36 ft | 11 kts | 17° |
| 2026-05-05 10:57 | 10.82310 | 106.66986 | 35 ft | 13 kts | 316° |
| 2026-05-05 10:57 | 10.82355 | 106.66912 | 35 ft | 11 kts | 270° |
| 2026-05-05 10:57 | 10.82325 | 106.66831 | 34 ft | 14 kts | 248° |
| 2026-05-05 10:57 | 10.82235 | 106.66595 | 31 ft | 70 kts | 249° |
| 2026-05-05 10:58 | 10.81980 | 106.65915 | 41 ft | 133 kts | 249° |
| 2026-05-05 10:58 | 10.81581 | 106.64867 | 44 ft | 182 kts | 247° |
| 2026-05-05 10:58 | 10.81112 | 106.63636 | 590 ft | 185 kts | 245° |
| 2026-05-05 10:58 | 10.80644 | 106.62416 | 1239 ft | 186 kts | 246° |
| 2026-05-05 10:59 | 10.80167 | 106.61161 | 1639 ft | 197 kts | 245° |
| 2026-05-05 10:59 | 10.79643 | 106.59795 | 1789 ft | 217 kts | 246° |
| 2026-05-05 10:59 | 10.79073 | 106.58297 | 1917 ft | 239 kts | 246° |
| 2026-05-05 10:59 | 10.78443 | 106.56638 | 2117 ft | 263 kts | 246° |
| 2026-05-05 11:00 | 10.77773 | 106.54870 | 2637 ft | 271 kts | 248° |
| 2026-05-05 11:00 | 10.77092 | 106.53066 | 3303 ft | 275 kts | 249° |
| 2026-05-05 11:00 | 10.76399 | 106.51232 | 3913 ft | 280 kts | 249° |
| 2026-05-05 11:00 | 10.75696 | 106.49376 | 4602 ft | 282 kts | 250° |
| 2026-05-05 11:01 | 10.74987 | 106.47504 | 5258 ft | 285 kts | 249° |
| 2026-05-05 11:01 | 10.74269 | 106.45612 | 5909 ft | 288 kts | 249° |
| 2026-05-05 11:01 | 10.73542 | 106.43701 | 6548 ft | 291 kts | 249° |
| 2026-05-05 11:01 | 10.72806 | 106.41770 | 7139 ft | 294 kts | 248° |
| 2026-05-05 11:02 | 10.72065 | 106.39823 | 7745 ft | 297 kts | 248° |
| 2026-05-05 11:02 | 10.71326 | 106.37881 | 8347 ft | 300 kts | 248° |
| 2026-05-05 11:02 | 10.70570 | 106.35892 | 8960 ft | 303 kts | 248° |
| 2026-05-05 11:02 | 10.69810 | 106.33883 | 9561 ft | 305 kts | 248° |
| 2026-05-05 11:03 | 10.69040 | 106.31857 | 10020 ft | 313 kts | 248° |
| 2026-05-05 11:03 | 10.68237 | 106.29720 | 10133 ft | 333 kts | 249° |
| 2026-05-05 11:03 | 10.67435 | 106.27443 | 10251 ft | 352 kts | 250° |
| 2026-05-05 11:03 | 10.66629 | 106.25049 | 10573 ft | 361 kts | 251° |
| 2026-05-05 11:04 | 10.65825 | 106.22617 | 11059 ft | 365 kts | 251° |
| 2026-05-05 11:04 | 10.65017 | 106.20164 | 11609 ft | 367 kts | 251° |
| 2026-05-05 11:04 | 10.64198 | 106.17697 | 12083 ft | 370 kts | 251° |
| 2026-05-05 11:04 | 10.63359 | 106.15207 | 12558 ft | 374 kts | 250° |
| 2026-05-05 11:05 | 10.62507 | 106.12705 | 13094 ft | 376 kts | 250° |
| 2026-05-05 11:05 | 10.61647 | 106.10190 | 13599 ft | 378 kts | 250° |
| 2026-05-05 11:05 | 10.60782 | 106.07658 | 14048 ft | 380 kts | 250° |
| 2026-05-05 11:05 | 10.59915 | 106.05114 | 14495 ft | 383 kts | 250° |
| 2026-05-05 11:06 | 10.59038 | 106.02544 | 14934 ft | 385 kts | 250° |
| 2026-05-05 11:06 | 10.58158 | 105.99963 | 15405 ft | 387 kts | 250° |
| 2026-05-05 11:06 | 10.57248 | 105.97385 | 15723 ft | 388 kts | 249° |
| 2026-05-05 11:06 | 10.56322 | 105.94840 | 15803 ft | 388 kts | 249° |
| 2026-05-05 11:07 | 10.55369 | 105.92267 | 15820 ft | 389 kts | 249° |
| 2026-05-05 11:07 | 10.54415 | 105.89701 | 15819 ft | 388 kts | 249° |
| 2026-05-05 11:07 | 10.53465 | 105.87144 | 15823 ft | 386 kts | 248° |
| 2026-05-05 11:07 | 10.52517 | 105.84586 | 15818 ft | 387 kts | 249° |
| 2026-05-05 11:08 | 10.51572 | 105.82025 | 15830 ft | 387 kts | 249° |
| 2026-05-05 11:08 | 10.50632 | 105.79463 | 15820 ft | 387 kts | 249° |
| 2026-05-05 11:08 | 10.49695 | 105.76900 | 15828 ft | 387 kts | 249° |
| 2026-05-05 11:08 | 10.48758 | 105.74337 | 15827 ft | 387 kts | 249° |
| 2026-05-05 11:09 | 10.47819 | 105.71767 | 15832 ft | 387 kts | 249° |
| 2026-05-05 11:09 | 10.46885 | 105.69203 | 15829 ft | 387 kts | 249° |
| 2026-05-05 11:09 | 10.45950 | 105.66638 | 15830 ft | 387 kts | 249° |
| 2026-05-05 11:09 | 10.45010 | 105.64076 | 15841 ft | 387 kts | 249° |
| 2026-05-05 11:10 | 10.44078 | 105.61544 | 15840 ft | 388 kts | 249° |
| 2026-05-05 11:10 | 10.43134 | 105.58979 | 15849 ft | 388 kts | 249° |
| 2026-05-05 11:10 | 10.42189 | 105.56410 | 15852 ft | 388 kts | 249° |
| 2026-05-05 11:10 | 10.41246 | 105.53845 | 15853 ft | 388 kts | 249° |
| 2026-05-05 11:11 | 10.40304 | 105.51280 | 15852 ft | 388 kts | 249° |
| 2026-05-05 11:11 | 10.39361 | 105.48711 | 15853 ft | 388 kts | 249° |
| 2026-05-05 11:11 | 10.38418 | 105.46142 | 15854 ft | 388 kts | 249° |
| 2026-05-05 11:11 | 10.37475 | 105.43575 | 15854 ft | 388 kts | 249° |
| 2026-05-05 11:12 | 10.36529 | 105.41009 | 15854 ft | 388 kts | 249° |
| 2026-05-05 11:12 | 10.35586 | 105.38444 | 15853 ft | 388 kts | 249° |
| 2026-05-05 11:12 | 10.34644 | 105.35877 | 15853 ft | 388 kts | 249° |
| 2026-05-05 11:12 | 10.33702 | 105.33310 | 15860 ft | 388 kts | 249° |
| 2026-05-05 11:13 | 10.32759 | 105.30745 | 15859 ft | 388 kts | 249° |
| 2026-05-05 11:13 | 10.31813 | 105.28177 | 15848 ft | 388 kts | 248° |
| 2026-05-05 11:13 | 10.30867 | 105.25609 | 15856 ft | 388 kts | 248° |
| 2026-05-05 11:13 | 10.29923 | 105.23046 | 15856 ft | 388 kts | 249° |
| 2026-05-05 11:14 | 10.28976 | 105.20482 | 15858 ft | 388 kts | 248° |
| 2026-05-05 11:14 | 10.28030 | 105.17922 | 15854 ft | 388 kts | 249° |
| 2026-05-05 11:14 | 10.27082 | 105.15357 | 15854 ft | 388 kts | 249° |
| 2026-05-05 11:14 | 10.26147 | 105.12827 | 15858 ft | 388 kts | 249° |
| 2026-05-05 11:15 | 10.25189 | 105.10231 | 15854 ft | 387 kts | 248° |
| 2026-05-05 11:15 | 10.24257 | 105.07704 | 15856 ft | 387 kts | 248° |
| 2026-05-05 11:15 | 10.23312 | 105.05141 | 15857 ft | 387 kts | 249° |
| 2026-05-05 11:15 | 10.22370 | 105.02583 | 15853 ft | 387 kts | 249° |
| 2026-05-05 11:16 | 10.21424 | 105.00020 | 15864 ft | 387 kts | 249° |
| 2026-05-05 11:16 | 10.20478 | 104.97464 | 15863 ft | 387 kts | 249° |
| 2026-05-05 11:16 | 10.19530 | 104.94903 | 15864 ft | 387 kts | 249° |
| 2026-05-05 11:16 | 10.18591 | 104.92364 | 15688 ft | 379 kts | 249° |
| 2026-05-05 11:17 | 10.17679 | 104.89894 | 15455 ft | 368 kts | 249° |
| 2026-05-05 11:17 | 10.16789 | 104.87482 | 15082 ft | 364 kts | 249° |
| 2026-05-05 11:17 | 10.15902 | 104.85081 | 14623 ft | 362 kts | 249° |
| 2026-05-05 11:17 | 10.15020 | 104.82693 | 14190 ft | 360 kts | 249° |
| 2026-05-05 11:18 | 10.14145 | 104.80322 | 13759 ft | 358 kts | 249° |
| 2026-05-05 11:18 | 10.13272 | 104.77959 | 13303 ft | 356 kts | 249° |
| 2026-05-05 11:18 | 10.12406 | 104.75620 | 12872 ft | 353 kts | 249° |
| 2026-05-05 11:18 | 10.11544 | 104.73301 | 12457 ft | 350 kts | 248° |
| 2026-05-05 11:19 | 10.10701 | 104.71030 | 12047 ft | 347 kts | 248° |
| 2026-05-05 11:19 | 10.09855 | 104.68751 | 11644 ft | 344 kts | 248° |
| 2026-05-05 11:19 | 10.09015 | 104.66485 | 11221 ft | 342 kts | 248° |
| 2026-05-05 11:19 | 10.08190 | 104.64261 | 11063 ft | 331 kts | 248° |
| 2026-05-05 11:20 | 10.07384 | 104.62083 | 10915 ft | 320 kts | 248° |
| 2026-05-05 11:20 | 10.06710 | 104.59981 | 10629 ft | 317 kts | 258° |
| 2026-05-05 11:20 | 10.06526 | 104.57766 | 10287 ft | 315 kts | 273° |
| 2026-05-05 11:20 | 10.06850 | 104.55578 | 9932 ft | 313 kts | 281° |
| 2026-05-05 11:21 | 10.07269 | 104.53414 | 9558 ft | 312 kts | 281° |
| 2026-05-05 11:21 | 10.07679 | 104.51251 | 9186 ft | 311 kts | 281° |
| 2026-05-05 11:21 | 10.08083 | 104.49101 | 8814 ft | 309 kts | 281° |
| 2026-05-05 11:21 | 10.08482 | 104.46959 | 8449 ft | 308 kts | 281° |
| 2026-05-05 11:22 | 10.08878 | 104.44829 | 8101 ft | 306 kts | 281° |
| 2026-05-05 11:22 | 10.09271 | 104.42711 | 7750 ft | 305 kts | 281° |
| 2026-05-05 11:22 | 10.09662 | 104.40603 | 7407 ft | 303 kts | 281° |
| 2026-05-05 11:22 | 10.10053 | 104.38506 | 7066 ft | 302 kts | 281° |
| 2026-05-05 11:23 | 10.10444 | 104.36420 | 6725 ft | 300 kts | 282° |
| 2026-05-05 11:23 | 10.10845 | 104.34375 | 6409 ft | 299 kts | 284° |
| 2026-05-05 11:23 | 10.11328 | 104.32326 | 6039 ft | 298 kts | 285° |
| 2026-05-05 11:23 | 10.11861 | 104.30264 | 5333 ft | 303 kts | 286° |
| 2026-05-05 11:24 | 10.12400 | 104.28232 | 4869 ft | 290 kts | 286° |
| 2026-05-05 11:24 | 10.12908 | 104.26319 | 4574 ft | 273 kts | 286° |
| 2026-05-05 11:24 | 10.13395 | 104.24478 | 4267 ft | 269 kts | 286° |
| 2026-05-05 11:24 | 10.13874 | 104.22651 | 3961 ft | 267 kts | 285° |
| 2026-05-05 11:25 | 10.14344 | 104.20837 | 3658 ft | 264 kts | 285° |
| 2026-05-05 11:25 | 10.14803 | 104.19058 | 3365 ft | 257 kts | 286° |
| 2026-05-05 11:25 | 10.15178 | 104.17309 | 3130 ft | 251 kts | 278° |
| 2026-05-05 11:25 | 10.15383 | 104.15564 | 2802 ft | 247 kts | 275° |
| 2026-05-05 11:26 | 10.15545 | 104.13838 | 2490 ft | 243 kts | 275° |
| 2026-05-05 11:26 | 10.15709 | 104.12152 | 2198 ft | 233 kts | 276° |
| 2026-05-05 11:26 | 10.15865 | 104.10582 | 1901 ft | 214 kts | 276° |
| 2026-05-05 11:26 | 10.16010 | 104.09130 | 1631 ft | 201 kts | 274° |
| 2026-05-05 11:27 | 10.16147 | 104.07758 | 1379 ft | 189 kts | 275° |
| 2026-05-05 11:27 | 10.16274 | 104.06472 | 1153 ft | 179 kts | 274° |
| 2026-05-05 11:27 | 10.16393 | 104.05272 | 963 ft | 166 kts | 275° |
| 2026-05-05 11:27 | 10.16507 | 104.04126 | 692 ft | 162 kts | 276° |
| 2026-05-05 11:28 | 10.16618 | 104.02965 | 510 ft | 167 kts | 277° |
| 2026-05-05 11:28 | 10.16734 | 104.01832 | 310 ft | 163 kts | 278° |
| 2026-05-05 11:28 | 10.16850 | 104.00670 | 69 ft | 163 kts | 278° |
| 2026-05-05 11:28 | 10.16960 | 103.99607 | 27 ft | 136 kts | 275° |
| 2026-05-05 11:29 | 10.17034 | 103.98828 | 25 ft | 86 kts | 276° |
| 2026-05-05 11:29 | 10.17082 | 103.98333 | 21 ft | 56 kts | 276° |
| 2026-05-05 11:29 | 10.17110 | 103.98058 | 20 ft | 29 kts | 276° |
| 2026-05-05 11:29 | 10.17041 | 103.97955 | 22 ft | 19 kts | 180° |
| 2026-05-05 11:30 | 10.16952 | 103.97974 | 20 ft | 12 kts | 124° |
| 2026-05-05 11:30 | 10.16935 | 103.98059 | 20 ft | 12 kts | 97° |
| 2026-05-05 11:30 | 10.16926 | 103.98147 | 21 ft | 13 kts | 96° |
| 2026-05-05 11:30 | 10.16914 | 103.98268 | 21 ft | 22 kts | 96° |
| 2026-05-05 11:31 | 10.16897 | 103.98435 | 22 ft | 24 kts | 95° |
| 2026-05-05 11:31 | 10.16880 | 103.98603 | 22 ft | 24 kts | 96° |
| 2026-05-05 11:31 | 10.16864 | 103.98769 | 23 ft | 24 kts | 96° |
| 2026-05-05 11:31 | 10.16848 | 103.98934 | 24 ft | 23 kts | 95° |
| 2026-05-05 11:32 | 10.16837 | 103.99043 | 24 ft | 23 kts | 96° |
| 2026-05-05 11:32 | 10.16821 | 103.99208 | 25 ft | 23 kts | 96° |
| 2026-05-05 11:32 | 10.16805 | 103.99372 | 25 ft | 23 kts | 96° |
| 2026-05-05 11:32 | 10.16788 | 103.99536 | 26 ft | 23 kts | 97° |
| 2026-05-05 11:33 | 10.16772 | 103.99700 | 27 ft | 23 kts | 95° |
| 2026-05-05 11:33 | 10.16756 | 103.99829 | 27 ft | 12 kts | 109° |
| 2026-05-05 11:33 | 10.16685 | 103.99855 | 27 ft | 12 kts | 187° |
| 2026-05-05 11:33 | 10.16588 | 103.99846 | 27 ft | 15 kts | 185° |
| 2026-05-05 11:34 | 10.16513 | 103.99800 | 27 ft | 11 kts | 228° |
| 2026-05-05 11:34 | 10.16454 | 103.99783 | 27 ft | 7 kts | 185° |
| 2026-05-05 11:34 | 10.16435 | 103.99781 | 27 ft | 1 kts | 187° |
| 2026-05-05 11:34 | 10.16433 | 103.99781 | 27 ft | 0 kts | 186° |
| 2026-05-05 11:35 | 10.16431 | 103.99781 | 27 ft | 0 kts | 186° |